createdAt,value
2022-09-15T00:01:10.004Z,21.44
2022-09-15T00:03:37.660Z,21.49
2022-09-15T00:06:05.056Z,21.49
2022-09-15T00:08:32.449Z,21.29
2022-09-15T00:11:08.742Z,21.23
2022-09-15T00:13:37.473Z,21.06
2022-09-15T00:16:05.699Z,20.99
2022-09-15T00:18:34.102Z,21.00
2022-09-15T00:21:06.181Z,21.08
2022-09-15T00:23:33.300Z,21.09
2022-09-15T00:26:00.402Z,21.15
2022-09-15T00:28:27.581Z,21.24
2022-09-15T00:30:55.780Z,21.14
2022-09-15T00:33:23.664Z,21.29
2022-09-15T00:35:53.456Z,21.23
2022-09-15T00:38:20.807Z,21.26
2022-09-15T00:40:53.049Z,21.18
2022-09-15T00:43:23.173Z,21.11
2022-09-15T00:45:50.765Z,21.06
2022-09-15T00:48:22.131Z,21.16
2022-09-15T00:50:56.086Z,21.42
2022-09-15T00:53:26.063Z,21.50
2022-09-15T00:55:53.479Z,21.52
2022-09-15T00:58:31.643Z,21.47
2022-09-15T01:01:01.142Z,21.46
2022-09-15T01:03:30.622Z,21.39
2022-09-15T01:06:07.429Z,21.25
2022-09-15T01:08:44.004Z,21.39
2022-09-15T01:11:11.229Z,21.28
2022-09-15T01:13:38.161Z,21.29
2022-09-15T01:16:33.075Z,21.38
2022-09-15T01:19:32.413Z,21.35
2022-09-15T01:22:11.128Z,21.29
2022-09-15T01:25:02.684Z,21.35
2022-09-15T01:27:51.044Z,21.48
2022-09-15T01:30:22.938Z,21.57
2022-09-15T01:33:14.333Z,21.56
2022-09-15T01:36:01.603Z,21.59
2022-09-15T01:38:38.200Z,21.64
2022-09-15T01:41:25.534Z,21.48
2022-09-15T01:44:11.114Z,21.45
2022-09-15T01:46:52.485Z,21.37
2022-09-15T01:49:25.247Z,21.63
2022-09-15T01:51:53.967Z,21.81
2022-09-15T01:54:26.850Z,21.71
2022-09-15T01:56:53.999Z,21.72
2022-09-15T01:59:20.963Z,21.65
2022-09-15T02:02:26.702Z,21.41
2022-09-15T02:04:59.891Z,21.29
2022-09-15T02:07:51.690Z,21.41
2022-09-15T02:10:38.319Z,21.40
2022-09-15T02:13:14.775Z,21.22
2022-09-15T02:15:48.161Z,21.34
2022-09-15T02:18:25.849Z,21.37
2022-09-15T02:20:59.961Z,21.43
2022-09-15T02:23:31.559Z,21.48
2022-09-15T02:26:07.011Z,21.58
2022-09-15T02:28:38.288Z,21.42
2022-09-15T02:31:08.885Z,21.19
2022-09-15T02:33:44.389Z,21.23
2022-09-15T02:36:15.871Z,21.35
2022-09-15T02:38:49.372Z,21.39
2022-09-15T02:41:17.357Z,21.53
2022-09-15T02:43:46.309Z,21.72
2022-09-15T02:46:16.031Z,21.94
2022-09-15T02:48:43.052Z,21.90
2022-09-15T02:51:10.499Z,22.12
2022-09-15T02:53:37.531Z,22.21
2022-09-15T02:56:08.181Z,22.10
2022-09-15T02:58:35.405Z,21.96
2022-09-15T03:01:07.610Z,21.82
2022-09-15T03:03:35.297Z,21.91
2022-09-15T03:06:18.519Z,21.94
2022-09-15T03:08:58.892Z,21.94
2022-09-15T03:11:27.731Z,22.13
2022-09-15T03:13:59.904Z,22.06
2022-09-15T03:16:28.091Z,22.01
2022-09-15T03:18:56.876Z,21.99
2022-09-15T03:21:24.033Z,22.03
2022-09-15T03:23:51.660Z,22.07
2022-09-15T03:26:18.731Z,22.01
2022-09-15T03:28:45.683Z,22.06
2022-09-15T03:31:12.879Z,22.03
2022-09-15T03:33:40.405Z,22.06
2022-09-15T03:36:07.810Z,22.10
2022-09-15T03:38:35.007Z,22.00
2022-09-15T03:41:04.948Z,21.93
2022-09-15T03:43:32.482Z,22.04
2022-09-15T03:46:00.026Z,21.93
2022-09-15T03:48:28.589Z,22.03
2022-09-15T03:50:55.684Z,22.07
2022-09-15T03:53:23.444Z,22.02
2022-09-15T03:55:50.777Z,21.89
2022-09-15T03:58:19.129Z,21.90
2022-09-15T04:00:47.068Z,21.81
2022-09-15T04:03:14.803Z,21.79
2022-09-15T04:05:42.318Z,21.69
2022-09-15T04:08:13.265Z,21.60
2022-09-15T04:10:41.382Z,21.57
2022-09-15T04:13:08.839Z,21.55
2022-09-15T04:15:36.154Z,21.54
2022-09-15T04:18:04.244Z,21.48
2022-09-15T04:20:32.232Z,21.49
2022-09-15T04:22:59.324Z,21.49
2022-09-15T04:25:28.023Z,21.51
2022-09-15T04:27:57.082Z,21.55
2022-09-15T04:30:24.657Z,21.66
2022-09-15T04:32:52.567Z,21.83
2022-09-15T04:35:22.082Z,21.85
2022-09-15T04:37:49.106Z,21.88
2022-09-15T04:40:16.404Z,21.96
2022-09-15T04:42:43.399Z,22.02
2022-09-15T04:45:10.590Z,22.12
2022-09-15T04:47:37.628Z,21.97
2022-09-15T04:50:04.954Z,21.92
2022-09-15T04:52:32.273Z,21.96
2022-09-15T04:54:59.241Z,21.95
2022-09-15T04:57:26.211Z,21.86
2022-09-15T04:59:53.180Z,21.86
2022-09-15T05:02:20.276Z,21.94
2022-09-15T05:04:49.033Z,21.94
2022-09-15T05:07:16.185Z,21.89
2022-09-15T05:09:43.270Z,21.88
2022-09-15T05:12:10.284Z,21.87
2022-09-15T05:14:37.263Z,21.91
2022-09-15T05:17:04.241Z,21.97
2022-09-15T05:19:31.194Z,21.96
2022-09-15T05:21:58.150Z,21.93
2022-09-15T05:24:25.177Z,21.94
2022-09-15T05:26:52.134Z,22.00
2022-09-15T05:29:19.718Z,22.09
2022-09-15T05:31:46.798Z,22.23
2022-09-15T05:34:17.372Z,22.27
2022-09-15T05:36:44.381Z,22.26
2022-09-15T05:39:11.332Z,22.30
2022-09-15T05:41:38.346Z,22.58
2022-09-15T05:44:05.394Z,22.58
2022-09-15T05:46:32.377Z,22.58
2022-09-15T05:48:59.490Z,22.48
2022-09-15T05:51:26.831Z,22.47
2022-09-15T05:53:53.720Z,22.48
2022-09-15T05:56:20.888Z,22.59
2022-09-15T05:58:48.957Z,22.59
2022-09-15T06:01:22.138Z,22.76
2022-09-15T06:03:49.377Z,22.90
2022-09-15T06:06:17.143Z,23.13
2022-09-15T06:08:52.792Z,23.17
2022-09-15T06:11:25.324Z,23.25
2022-09-15T06:13:52.419Z,23.32
2022-09-15T06:16:24.212Z,23.47
2022-09-15T06:18:52.884Z,23.39
2022-09-15T06:21:25.752Z,23.22
2022-09-15T06:24:01.245Z,23.31
2022-09-15T06:26:28.588Z,23.42
2022-09-15T06:29:00.826Z,23.48
2022-09-15T06:31:30.016Z,23.38
2022-09-15T06:33:58.515Z,23.42
2022-09-15T06:36:27.967Z,23.53
2022-09-15T06:38:54.969Z,23.45
2022-09-15T06:41:22.669Z,23.35
2022-09-15T06:43:49.800Z,23.39
2022-09-15T06:46:23.140Z,23.28
2022-09-15T06:48:51.448Z,23.39
2022-09-15T06:51:20.698Z,23.31
2022-09-15T06:53:47.768Z,23.29
2022-09-15T06:56:22.936Z,23.37
2022-09-15T06:58:50.401Z,23.19
2022-09-15T07:01:26.048Z,23.09
2022-09-15T07:03:53.359Z,23.04
2022-09-15T07:08:48.225Z,22.98
2022-09-15T07:11:16.024Z,23.01
2022-09-15T07:13:43.383Z,23.08
2022-09-15T07:16:13.010Z,23.16
2022-09-15T07:18:43.347Z,23.15
2022-09-15T07:21:14.164Z,23.21
2022-09-15T07:23:42.151Z,23.31
2022-09-15T07:26:13.354Z,23.33
2022-09-15T07:28:42.539Z,23.47
2022-09-15T07:31:12.529Z,23.67
2022-09-15T07:33:40.963Z,23.69
2022-09-15T07:36:08.944Z,23.70
2022-09-15T07:38:40.779Z,23.74
2022-09-15T07:41:10.431Z,23.96
2022-09-15T07:43:37.680Z,24.00
2022-09-15T07:46:05.623Z,24.05
2022-09-15T07:48:32.812Z,24.04
2022-09-15T07:51:02.627Z,24.05
2022-09-15T07:53:30.224Z,24.21
2022-09-15T07:55:57.727Z,24.34
2022-09-15T07:58:25.374Z,24.32
2022-09-15T08:00:52.584Z,24.38
2022-09-15T08:03:19.669Z,24.31
2022-09-15T08:05:46.629Z,24.33
2022-09-15T08:08:13.761Z,24.13
2022-09-15T08:10:41.551Z,24.19
2022-09-15T08:13:09.126Z,24.37
2022-09-15T08:15:38.046Z,24.42
2022-09-15T08:18:06.182Z,24.52
2022-09-15T08:20:33.562Z,24.60
2022-09-15T08:23:00.869Z,24.87
2022-09-15T08:25:27.772Z,25.16
2022-09-15T08:27:56.445Z,25.57
2022-09-15T08:30:26.860Z,25.62
2022-09-15T08:32:54.976Z,25.38
2022-09-15T08:35:22.068Z,25.61
2022-09-15T08:37:49.138Z,25.79
2022-09-15T08:40:20.000Z,26.06
2022-09-15T08:42:50.862Z,26.22
2022-09-15T08:45:24.843Z,26.55
2022-09-15T08:47:58.860Z,26.49
2022-09-15T08:50:28.644Z,26.14
2022-09-15T08:53:12.152Z,25.98
2022-09-15T08:55:53.275Z,26.20
2022-09-15T08:58:32.122Z,26.70
2022-09-15T09:01:11.128Z,26.30
2022-09-15T09:03:44.154Z,26.68
2022-09-15T09:06:17.319Z,26.49
2022-09-15T09:09:00.833Z,26.75
2022-09-15T09:11:51.059Z,26.34
2022-09-15T09:14:37.834Z,26.48
2022-09-15T09:17:16.813Z,26.84
2022-09-15T09:19:58.866Z,27.02
2022-09-15T09:22:35.960Z,27.42
2022-09-15T09:25:21.287Z,27.63
2022-09-15T09:27:52.986Z,27.74
2022-09-15T09:30:23.344Z,27.29
2022-09-15T09:32:56.312Z,27.20
2022-09-15T09:35:37.819Z,27.29
2022-09-15T09:38:05.098Z,27.54
2022-09-15T09:40:33.862Z,27.57
2022-09-15T09:43:01.290Z,27.46
2022-09-15T09:45:28.332Z,27.80
2022-09-15T09:48:02.544Z,28.03
2022-09-15T09:50:38.966Z,27.93
2022-09-15T09:53:34.252Z,27.34
2022-09-15T09:56:16.621Z,27.11
2022-09-15T09:58:44.641Z,27.45
2022-09-15T10:01:23.471Z,27.51
2022-09-15T10:04:11.977Z,28.27
2022-09-15T10:06:40.257Z,28.51
2022-09-15T10:09:17.234Z,28.04
2022-09-15T10:12:00.581Z,27.80
2022-09-15T10:14:37.800Z,27.99
2022-09-15T10:17:11.116Z,28.19
2022-09-15T10:19:44.007Z,28.36
2022-09-15T10:22:23.945Z,28.36
2022-09-15T10:24:51.128Z,28.35
2022-09-15T10:27:27.340Z,28.33
2022-09-15T10:30:00.006Z,28.74
2022-09-15T10:32:28.476Z,28.65
2022-09-15T10:35:13.352Z,29.21
2022-09-15T10:37:49.311Z,28.90
2022-09-15T10:40:33.097Z,28.41
2022-09-15T10:43:09.000Z,28.45
2022-09-15T10:45:45.242Z,28.10
2022-09-15T10:48:30.568Z,27.81
2022-09-15T10:51:09.921Z,27.47
2022-09-15T10:53:46.388Z,27.58
2022-09-15T10:56:34.150Z,27.63
2022-09-15T10:59:22.114Z,27.67
2022-09-15T11:01:59.248Z,27.41
2022-09-15T11:05:22.619Z,27.19
2022-09-15T11:07:55.570Z,27.17
2022-09-15T11:10:34.274Z,25.70
2022-09-15T11:13:17.321Z,24.84
2022-09-15T11:15:50.035Z,24.67
2022-09-15T11:19:05.392Z,24.60
2022-09-15T11:21:38.350Z,24.50
2022-09-15T11:24:26.464Z,23.82
2022-09-15T11:27:03.681Z,23.35
2022-09-15T11:29:48.980Z,23.30
2022-09-15T11:32:21.312Z,23.49
2022-09-15T11:35:02.812Z,23.59
2022-09-15T11:37:42.516Z,23.67
2022-09-15T11:40:24.077Z,23.36
2022-09-15T11:43:29.795Z,20.25
2022-09-15T11:45:59.579Z,19.73
2022-09-15T11:48:50.354Z,19.57
2022-09-15T11:51:21.759Z,19.57
2022-09-15T11:54:11.447Z,19.49
2022-09-15T11:56:43.601Z,19.30
2022-09-15T11:59:27.144Z,19.32
2022-09-15T12:02:16.034Z,19.63
2022-09-15T12:05:06.602Z,19.80
2022-09-15T12:07:41.080Z,19.91
2022-09-15T12:10:19.283Z,19.99
2022-09-15T12:12:47.273Z,20.14
2022-09-15T12:15:17.668Z,19.96
2022-09-15T12:18:27.246Z,20.33
2022-09-15T12:21:01.232Z,20.48
2022-09-15T12:23:41.213Z,20.55
2022-09-15T12:26:16.390Z,20.46
2022-09-15T12:28:57.903Z,20.45
2022-09-15T12:31:37.928Z,20.56
2022-09-15T12:34:04.937Z,20.60
2022-09-15T12:36:47.121Z,20.77
2022-09-15T12:39:36.404Z,21.04
2022-09-15T12:42:03.304Z,21.23
2022-09-15T12:44:53.698Z,21.36
2022-09-15T12:47:33.645Z,21.41
2022-09-15T12:50:20.489Z,21.50
2022-09-15T12:52:53.669Z,21.69
2022-09-15T12:55:21.025Z,21.74
2022-09-15T12:57:54.697Z,21.83
2022-09-15T13:00:23.679Z,21.99
2022-09-15T13:02:51.624Z,22.02
2022-09-15T13:05:43.145Z,21.98
2022-09-15T13:08:33.564Z,21.96
2022-09-15T13:11:15.989Z,22.03
2022-09-15T13:14:01.852Z,22.03
2022-09-15T13:16:33.576Z,21.94
2022-09-15T13:19:13.986Z,21.78
2022-09-15T13:21:46.073Z,21.74
2022-09-15T13:24:20.542Z,21.71
2022-09-15T13:26:52.176Z,21.72
2022-09-15T13:29:21.251Z,21.63
2022-09-15T13:31:55.784Z,21.47
2022-09-15T13:35:09.132Z,21.31
2022-09-15T13:38:12.183Z,21.21
2022-09-15T13:41:03.089Z,21.21
2022-09-15T13:43:42.579Z,21.27
2022-09-15T13:46:38.721Z,21.25
2022-09-15T13:49:43.333Z,21.21
2022-09-15T13:52:25.359Z,21.15
2022-09-15T13:55:33.908Z,21.11
2022-09-15T14:01:03.048Z,21.09
2022-09-15T14:03:37.100Z,20.88
2022-09-15T14:06:33.843Z,21.09
2022-09-15T14:09:12.856Z,21.18
2022-09-15T14:11:43.764Z,21.35
2022-09-15T14:14:35.701Z,21.50
2022-09-15T14:17:03.157Z,21.51
2022-09-15T14:19:34.977Z,21.56
2022-09-15T14:22:24.949Z,21.60
2022-09-15T14:24:53.082Z,21.71
2022-09-15T14:27:24.637Z,21.85
2022-09-15T14:29:58.007Z,21.96
2022-09-15T14:32:28.161Z,21.85
2022-09-15T14:34:59.290Z,21.89
2022-09-15T14:37:34.972Z,21.89
2022-09-15T14:40:23.656Z,21.86
2022-09-15T14:42:51.548Z,21.88
2022-09-15T14:48:16.878Z,21.91
2022-09-15T14:50:46.529Z,21.88
2022-09-15T14:53:18.695Z,21.91
2022-09-15T14:56:09.005Z,21.82
2022-09-15T14:58:42.954Z,21.68
2022-09-15T15:01:10.047Z,21.60
2022-09-15T15:03:46.590Z,21.56
2022-09-15T15:06:37.490Z,21.65
2022-09-15T15:09:12.608Z,21.71
2022-09-15T15:11:41.945Z,21.69
2022-09-15T15:14:11.871Z,21.61
2022-09-15T15:16:50.607Z,21.52
2022-09-15T15:19:31.756Z,21.56
2022-09-15T15:22:13.859Z,21.51
2022-09-15T15:24:46.256Z,21.47
2022-09-15T15:27:35.126Z,21.31
2022-09-15T15:30:30.915Z,21.43
2022-09-15T15:33:19.302Z,21.23
2022-09-15T15:35:47.739Z,21.10
2022-09-15T15:38:17.280Z,21.14
2022-09-15T15:40:46.020Z,21.11
2022-09-15T15:43:22.317Z,21.26
2022-09-15T15:46:02.322Z,21.23
2022-09-15T15:48:37.895Z,21.29
2022-09-15T15:51:07.122Z,21.30
2022-09-15T15:53:34.580Z,21.50
2022-09-15T15:56:02.849Z,21.30
2022-09-15T15:58:29.802Z,21.41
2022-09-15T16:00:57.269Z,21.39
2022-09-15T16:03:25.795Z,21.39
2022-09-15T16:05:57.077Z,21.30
2022-09-15T16:08:32.030Z,21.29
2022-09-15T16:11:01.787Z,21.23
2022-09-15T16:13:29.063Z,21.24
2022-09-15T16:15:58.055Z,21.58
2022-09-15T16:18:25.214Z,22.22
2022-09-15T16:20:52.714Z,21.50
2022-09-15T16:23:22.922Z,21.34
2022-09-15T16:25:55.710Z,21.29
2022-09-15T16:28:22.796Z,21.47
2022-09-15T16:30:49.970Z,21.11
2022-09-15T16:33:18.869Z,21.53
2022-09-15T16:36:08.850Z,21.13
2022-09-15T16:38:36.952Z,20.98
2022-09-15T16:41:10.589Z,20.86
2022-09-15T16:43:37.581Z,20.71
2022-09-15T16:46:06.492Z,20.65
2022-09-15T16:48:34.366Z,20.69
2022-09-15T16:51:20.957Z,20.71
2022-09-15T16:53:49.005Z,20.74
2022-09-15T16:56:16.255Z,20.76
2022-09-15T16:58:43.432Z,20.76
2022-09-15T17:01:18.438Z,21.62
2022-09-15T17:03:45.954Z,21.88
2022-09-15T17:06:14.969Z,21.63
2022-09-15T17:08:42.232Z,21.55
2022-09-15T17:11:20.236Z,21.15
2022-09-15T17:13:47.282Z,20.94
2022-09-15T17:16:17.421Z,20.80
2022-09-15T17:18:44.783Z,20.84
2022-09-15T17:21:13.360Z,20.88
2022-09-15T17:23:48.343Z,20.68
2022-09-15T17:26:21.259Z,20.49
2022-09-15T17:28:48.951Z,20.59
2022-09-15T17:31:19.558Z,20.56
2022-09-15T17:33:47.691Z,21.24
2022-09-15T17:36:15.127Z,20.92
2022-09-15T17:38:43.162Z,20.54
2022-09-15T17:41:20.829Z,21.21
2022-09-15T17:43:48.112Z,20.83
2022-09-15T17:46:15.560Z,20.50
2022-09-15T17:48:42.702Z,20.24
2022-09-15T17:51:15.434Z,20.10
2022-09-15T17:53:42.872Z,20.09
2022-09-15T17:56:09.827Z,20.13
2022-09-15T17:58:36.851Z,20.16
2022-09-15T18:01:04.182Z,18.79
2022-09-15T18:03:35.110Z,18.59
2022-09-15T18:06:08.052Z,18.33
2022-09-15T18:08:39.088Z,18.29
2022-09-15T18:11:06.942Z,18.33
2022-09-15T18:13:34.398Z,18.11
2022-09-15T18:16:12.579Z,18.16
2022-09-15T18:18:41.075Z,18.17
2022-09-15T18:21:13.187Z,18.12
2022-09-15T18:23:42.513Z,18.11
2022-09-15T18:26:09.555Z,18.20
2022-09-15T18:28:36.536Z,18.32
2022-09-15T18:31:04.016Z,18.47
2022-09-15T18:33:30.956Z,18.47
2022-09-15T18:36:01.595Z,18.48
2022-09-15T18:38:28.674Z,18.42
2022-09-15T18:40:57.101Z,18.47
2022-09-15T18:43:26.517Z,18.41
2022-09-15T18:45:58.690Z,18.56
2022-09-15T18:48:25.957Z,18.49
2022-09-15T18:50:53.589Z,18.22
2022-09-15T18:53:20.601Z,18.23
2022-09-15T18:55:47.735Z,18.29
2022-09-15T18:58:14.783Z,18.28
2022-09-15T19:00:42.064Z,18.27
2022-09-15T19:03:14.351Z,18.27
2022-09-15T19:05:41.669Z,18.28
2022-09-15T19:08:09.388Z,18.25
2022-09-15T19:10:39.826Z,18.22
2022-09-15T19:13:11.557Z,18.33
2022-09-15T19:15:43.624Z,18.44
2022-09-15T19:18:10.641Z,18.39
2022-09-15T19:20:37.671Z,18.36
2022-09-15T19:23:04.943Z,18.25
2022-09-15T19:25:32.436Z,18.26
2022-09-15T19:27:59.517Z,18.23
2022-09-15T19:30:26.515Z,18.21
2022-09-15T19:32:53.893Z,18.21
2022-09-15T19:35:21.437Z,18.30
2022-09-15T19:37:48.809Z,18.41
2022-09-15T19:40:16.349Z,18.40
2022-09-15T19:42:44.229Z,18.41
2022-09-15T19:45:12.793Z,18.38
2022-09-15T19:47:40.400Z,18.47
2022-09-15T19:50:08.910Z,18.43
2022-09-15T19:52:36.044Z,18.48
2022-09-15T19:55:05.008Z,18.48
2022-09-15T19:57:31.967Z,18.54
2022-09-15T19:59:58.933Z,18.44
2022-09-15T20:02:26.076Z,18.57
2022-09-15T20:04:53.173Z,18.63
2022-09-15T20:07:23.218Z,18.37
2022-09-15T20:09:53.106Z,18.40
2022-09-15T20:14:48.051Z,18.48
2022-09-15T20:17:15.242Z,18.41
2022-09-15T20:19:42.424Z,18.42
2022-09-15T20:22:12.570Z,18.46
2022-09-15T20:24:40.392Z,18.43
2022-09-15T20:27:08.984Z,18.42
2022-09-15T20:29:36.125Z,18.37
2022-09-15T20:32:03.119Z,18.29
2022-09-15T20:34:30.133Z,18.35
2022-09-15T20:36:57.170Z,18.32
2022-09-15T20:39:26.652Z,18.48
2022-09-15T20:41:53.637Z,18.33
2022-09-15T20:44:21.418Z,18.21
2022-09-15T20:46:50.827Z,18.16
2022-09-15T20:49:20.037Z,18.18
2022-09-15T20:51:47.180Z,18.13
2022-09-15T20:54:14.333Z,18.13
2022-09-15T20:56:41.324Z,18.13
2022-09-15T20:59:10.727Z,18.19
2022-09-15T21:01:42.106Z,18.15
2022-09-15T21:04:10.310Z,18.26
2022-09-15T21:06:37.504Z,18.28
2022-09-15T21:09:05.808Z,18.22
2022-09-15T21:11:33.161Z,18.19
2022-09-15T21:14:02.301Z,18.16
2022-09-15T21:16:30.068Z,18.22
2022-09-15T21:18:58.667Z,18.27
2022-09-15T21:21:30.945Z,18.13
2022-09-15T21:24:14.902Z,18.22
2022-09-15T21:27:01.047Z,18.26
2022-09-15T21:29:29.658Z,18.33
2022-09-15T21:31:58.148Z,18.29
2022-09-15T21:34:26.724Z,18.31
2022-09-15T21:36:54.259Z,18.28
2022-09-15T21:39:21.839Z,18.24
2022-09-15T21:41:50.054Z,18.30
2022-09-15T21:44:17.662Z,18.38
2022-09-15T21:46:47.190Z,18.39
2022-09-15T21:49:14.985Z,18.47
2022-09-15T21:51:42.198Z,18.49
2022-09-15T21:54:10.315Z,18.48
2022-09-15T21:56:37.861Z,18.32
2022-09-15T21:59:05.537Z,18.43
2022-09-15T22:01:33.599Z,18.44
2022-09-15T22:04:03.510Z,18.48
2022-09-15T22:06:33.720Z,18.39
2022-09-15T22:09:03.125Z,18.42
2022-09-15T22:11:30.481Z,18.54
2022-09-15T22:13:58.246Z,18.45
2022-09-15T22:16:26.372Z,18.46
2022-09-15T22:18:54.018Z,18.40
2022-09-15T22:21:26.354Z,18.38
2022-09-15T22:23:57.934Z,18.38
2022-09-15T22:26:28.292Z,18.42
2022-09-15T22:28:57.001Z,18.35
2022-09-15T22:31:25.380Z,18.33
2022-09-15T22:33:53.538Z,18.32
2022-09-15T22:36:29.198Z,18.34
2022-09-15T22:39:05.462Z,18.29
2022-09-15T22:41:36.435Z,18.37
2022-09-15T22:44:05.523Z,18.40
2022-09-15T22:46:34.111Z,18.50
2022-09-15T22:49:01.561Z,18.63
2022-09-15T22:51:29.149Z,18.65
2022-09-15T22:53:57.464Z,18.54
2022-09-15T22:56:26.475Z,18.52
2022-09-15T22:58:56.019Z,18.45
2022-09-15T23:01:31.331Z,18.62
2022-09-15T23:04:02.164Z,18.62
2022-09-15T23:06:31.875Z,18.56
2022-09-15T23:09:01.519Z,18.60
2022-09-15T23:11:29.414Z,18.61
2022-09-15T23:13:56.908Z,18.51
2022-09-15T23:16:25.083Z,18.67
2022-09-15T23:18:53.328Z,18.55
2022-09-15T23:21:20.938Z,18.60
2022-09-15T23:23:49.068Z,18.50
2022-09-15T23:26:18.645Z,18.53
2022-09-15T23:28:45.595Z,18.51
2022-09-15T23:31:13.552Z,18.65
2022-09-15T23:33:40.727Z,18.53
2022-09-15T23:36:10.818Z,18.60
2022-09-15T23:38:40.250Z,18.63
2022-09-15T23:41:08.134Z,18.65
2022-09-15T23:43:35.561Z,18.65
2022-09-15T23:46:02.891Z,18.59
2022-09-15T23:48:31.786Z,18.59
2022-09-15T23:50:59.029Z,18.59
2022-09-15T23:53:26.003Z,18.53
2022-09-15T23:55:53.145Z,18.56
2022-09-15T23:58:20.154Z,18.64
